Time;durP1;ratioP1;P1;durP2;ratioP2;P2;SDS_P1;SDS_P2;PMS_P1;PMS_P2;Temp;Humidity;BMP_temperature;BMP_pressure;BME280_temperature;BME280_humidity;BME280_pressure;Samples;Min_cycle;Max_cycle;Signal;HPM_P1;HPM_P2
2021/06/07 00:00:13;;;;;;;9.45;8.55;;;;;;;18.61;71.89;100676.09;10231631;28;20150;-61
2021/06/07 00:05:16;;;;;;;8.27;7.40;;;;;;;18.49;71.76;100680.13;10244228;28;20097;-61
2021/06/07 00:10:18;;;;;;;9.40;8.50;;;;;;;18.55;71.68;100674.94;10250061;28;20443;-61
2021/06/07 00:15:22;;;;;;;13.20;8.68;;;;;;;18.50;72.19;100687.22;10236779;28;20055;-60
2021/06/07 00:20:33;;;;;;;9.07;8.27;;;;;;;18.43;71.95;100675.41;10250491;28;20138;-66
2021/06/07 00:25:34;;;;;;;8.65;7.78;;;;;;;18.38;72.22;100682.13;10252754;28;20122;-62
2021/06/07 00:30:39;;;;;;;9.73;8.73;;;;;;;18.36;73.13;100686.00;10249721;28;20071;-64
2021/06/07 00:35:41;;;;;;;9.23;8.32;;;;;;;18.42;73.74;100684.50;10245448;28;20416;-60
2021/06/07 00:40:43;;;;;;;11.05;10.05;;;;;;;18.28;74.00;100673.34;10246253;28;20067;-61
2021/06/07 00:45:44;;;;;;;10.80;9.70;;;;;;;18.40;73.56;100686.50;10243100;28;20093;-62
2021/06/07 00:50:53;;;;;;;9.88;8.88;;;;;;;18.48;73.52;100689.22;10250707;28;20460;-61
2021/06/07 00:55:57;;;;;;;10.10;9.10;;;;;;;18.17;74.73;100674.47;10246621;28;20061;-64
2021/06/07 01:01:04;;;;;;;11.07;8.95;;;;;;;18.32;75.53;100684.66;10249527;28;20097;-61
2021/06/07 01:06:07;;;;;;;10.98;9.98;;;;;;;18.24;77.16;100680.06;10246393;28;20043;-61
2021/06/07 01:11:09;;;;;;;11.82;10.63;;;;;;;18.23;78.48;100691.03;10246525;28;20074;-61
2021/06/07 01:16:11;;;;;;;10.48;9.48;;;;;;;18.07;78.48;100681.00;10252467;28;20134;-60
2021/06/07 01:21:16;;;;;;;11.20;10.05;;;;;;;18.06;80.86;100682.00;10248260;28;20515;-60
2021/06/07 01:26:19;;;;;;;10.73;9.73;;;;;;;18.02;79.42;100668.88;10252854;28;20234;-60
2021/06/07 01:31:22;;;;;;;11.43;10.32;;;;;;;17.94;80.50;100674.22;10251253;23;20174;-61
2021/06/07 01:36:24;;;;;;;11.95;10.35;;;;;;;17.80;81.61;100672.09;10289872;28;20061;-65
2021/06/07 01:41:26;;;;;;;12.27;9.30;;;;;;;17.78;81.85;100671.44;10251193;28;20063;-62
2021/06/07 01:46:27;;;;;;;10.68;9.52;;;;;;;17.87;82.43;100664.25;10243963;28;20557;-62
2021/06/07 01:51:29;;;;;;;10.65;9.65;;;;;;;17.74;82.48;100665.50;10244617;28;20165;-62
2021/06/07 01:56:30;;;;;;;10.88;9.88;;;;;;;17.87;82.29;100665.06;10247042;28;20134;-62
2021/06/07 02:01:32;;;;;;;11.18;10.18;;;;;;;17.85;82.42;100653.63;10238471;28;20117;-61
2021/06/07 02:06:33;;;;;;;12.18;10.98;;;;;;;17.65;82.51;100655.69;10242127;28;20078;-62
2021/06/07 02:11:35;;;;;;;11.45;10.35;;;;;;;17.75;83.10;100660.97;10246747;28;20144;-61
2021/06/07 02:16:38;;;;;;;11.50;10.30;;;;;;;17.84;83.17;100660.84;10238027;28;20055;-63
2021/06/07 02:21:40;;;;;;;12.82;11.52;;;;;;;17.81;82.84;100655.78;10233197;28;20135;-62
2021/06/07 02:26:42;;;;;;;13.35;12.15;;;;;;;17.75;82.17;100655.59;10243514;28;20108;-62
2021/06/07 02:31:44;;;;;;;12.70;11.40;;;;;;;17.64;82.93;100654.03;10240754;28;20186;-61
2021/06/07 02:36:46;;;;;;;12.60;11.40;;;;;;;17.75;82.34;100661.81;10240243;28;20134;-64
2021/06/07 02:41:47;;;;;;;14.52;13.13;;;;;;;17.52;84.00;100661.53;10237204;28;20507;-64
2021/06/07 02:46:48;;;;;;;13.05;11.75;;;;;;;17.66;82.38;100666.31;10246126;28;20054;-64
2021/06/07 02:51:50;;;;;;;14.85;13.35;;;;;;;17.61;83.12;100665.94;10242991;28;20051;-66
2021/06/07 02:56:52;;;;;;;14.25;12.57;;;;;;;17.62;83.08;100664.94;10242682;28;20142;-65
2021/06/07 03:01:53;;;;;;;13.20;11.93;;;;;;;17.42;84.67;100658.09;10236204;28;20054;-65
2021/06/07 03:06:55;;;;;;;13.75;12.25;;;;;;;17.33;86.65;100667.13;10241620;28;20643;-64
2021/06/07 03:11:56;;;;;;;14.48;12.90;;;;;;;17.43;84.83;100662.47;10242350;28;20208;-64
2021/06/07 03:16:57;;;;;;;12.82;11.70;;;;;;;17.29;86.63;100663.88;10253036;28;20130;-64
2021/06/07 03:21:59;;;;;;;13.35;11.93;;;;;;;17.35;85.23;100660.56;10240717;28;20546;-65
2021/06/07 03:27:03;;;;;;;14.07;12.77;;;;;;;17.48;84.25;100665.53;10235114;28;20179;-64
2021/06/07 03:32:04;;;;;;;13.52;12.18;;;;;;;17.39;84.31;100661.94;10244827;28;20134;-64
2021/06/07 03:37:06;;;;;;;14.55;13.02;;;;;;;17.30;84.78;100669.09;10250292;28;20542;-64
2021/06/07 03:42:08;;;;;;;14.20;12.80;;;;;;;17.32;85.48;100666.25;10254047;28;20057;-64
2021/06/07 03:47:09;;;;;;;18.65;14.05;;;;;;;17.37;85.41;100669.34;10250108;28;20562;-64
2021/06/07 03:52:11;;;;;;;14.48;12.90;;;;;;;17.23;86.76;100670.72;10250493;28;20074;-64
2021/06/07 03:57:12;;;;;;;16.25;14.38;;;;;;;17.33;85.90;100664.44;10251218;28;20133;-64
2021/06/07 04:02:16;;;;;;;15.13;13.02;;;;;;;17.36;85.38;100673.03;10236666;28;20139;-63
2021/06/07 04:07:18;;;;;;;14.70;13.10;;;;;;;17.28;84.92;100671.13;10235376;28;20078;-66
2021/06/07 04:12:19;;;;;;;13.30;11.93;;;;;;;17.26;86.22;100672.28;10240418;28;20511;-63
2021/06/07 04:17:21;;;;;;;15.57;13.48;;;;;;;17.36;86.79;100666.81;10253420;28;20116;-63
2021/06/07 04:22:22;;;;;;;16.83;13.13;;;;;;;17.25;86.75;100655.28;10250314;28;20685;-64
2021/06/07 04:27:24;;;;;;;14.93;12.40;;;;;;;17.25;86.10;100665.19;10248923;28;20050;-63
2021/06/07 04:32:25;;;;;;;15.65;14.05;;;;;;;17.24;87.61;100668.91;10248528;28;20070;-61
2021/06/07 04:37:28;;;;;;;15.80;13.30;;;;;;;17.24;88.63;100668.91;10249096;28;20338;-61
2021/06/07 04:42:30;;;;;;;13.20;11.90;;;;;;;17.26;86.03;100667.75;10247632;28;20071;-61
2021/06/07 04:47:31;;;;;;;16.25;13.80;;;;;;;17.29;87.89;100666.56;10243364;28;20051;-61
2021/06/07 04:52:35;;;;;;;15.23;13.07;;;;;;;17.23;87.75;100668.03;10246308;28;20137;-61
2021/06/07 04:57:37;;;;;;;15.00;13.50;;;;;;;17.01;87.83;100661.34;10248449;28;20158;-61
2021/06/07 05:02:38;;;;;;;13.57;12.03;;;;;;;17.21;88.14;100664.69;10243515;28;20471;-62
2021/06/07 05:07:39;;;;;;;16.77;14.10;;;;;;;17.33;87.36;100678.72;10235063;28;20904;-62
2021/06/07 05:12:41;;;;;;;16.83;13.85;;;;;;;17.32;86.86;100677.03;10240587;28;20409;-62
2021/06/07 05:17:43;;;;;;;14.98;13.48;;;;;;;17.25;85.99;100684.03;10241859;28;20506;-62
2021/06/07 05:22:45;;;;;;;13.98;12.40;;;;;;;17.15;86.58;100686.81;10246421;28;20483;-62
2021/06/07 05:27:50;;;;;;;14.90;13.45;;;;;;;17.28;85.97;100692.66;10245659;28;20058;-61
2021/06/07 05:32:52;;;;;;;15.52;13.93;;;;;;;17.21;87.09;100690.75;10243280;28;20096;-61
2021/06/07 05:37:54;;;;;;;13.85;12.55;;;;;;;17.27;87.18;100696.31;10237283;28;20481;-62
2021/06/07 05:42:56;;;;;;;15.43;13.15;;;;;;;17.20;87.05;100699.81;10241046;28;20202;-62
2021/06/07 05:47:58;;;;;;;13.95;12.43;;;;;;;17.20;87.03;100692.56;10235351;28;20046;-62
2021/06/07 05:53:01;;;;;;;15.05;13.50;;;;;;;17.16;87.49;100701.09;10246205;28;20145;-62
2021/06/07 05:58:13;;;;;;;11.95;10.75;;;;;;;17.31;91.11;100707.63;10254134;28;20118;-58
2021/06/07 06:03:14;;;;;;;14.07;12.68;;;;;;;17.57;86.87;100713.03;10246949;28;20047;-58
2021/06/07 06:08:18;;;;;;;14.77;12.95;;;;;;;17.61;85.35;100702.78;10244963;28;20050;-62
2021/06/07 06:13:20;;;;;;;16.42;14.70;;;;;;;17.50;86.16;100706.56;10251335;28;20046;-60
2021/06/07 06:18:21;;;;;;;15.40;13.90;;;;;;;17.22;87.83;100706.72;10252925;28;20051;-63
2021/06/07 06:23:22;;;;;;;14.70;13.20;;;;;;;17.27;88.14;100706.25;10261917;28;20061;-63
2021/06/07 06:28:24;;;;;;;15.10;13.35;;;;;;;17.23;88.00;100711.09;10262541;28;20050;-63
2021/06/07 06:33:26;;;;;;;15.30;13.70;;;;;;;17.14;87.27;100699.44;10279152;28;20077;-63
2021/06/07 06:38:27;;;;;;;14.82;13.32;;;;;;;17.08;89.77;100701.88;10285089;28;20425;-63
2021/06/07 06:43:29;;;;;;;15.85;13.95;;;;;;;17.13;89.13;100713.03;10282603;28;20059;-63
2021/06/07 06:48:33;;;;;;;14.75;12.52;;;;;;;17.24;88.48;100710.09;10285001;28;20074;-65
2021/06/07 06:53:34;;;;;;;14.57;13.07;;;;;;;17.17;87.63;100700.94;10285556;28;20625;-63
2021/06/07 06:58:36;;;;;;;15.10;13.43;;;;;;;17.11;89.93;100712.34;10274455;28;20054;-63
2021/06/07 07:03:39;;;;;;;15.30;12.98;;;;;;;17.15;90.58;100711.03;10281946;28;20137;-64
2021/06/07 07:08:40;;;;;;;15.63;13.88;;;;;;;17.18;88.31;100716.09;10279772;28;20137;-64
2021/06/07 07:13:42;;;;;;;15.57;13.98;;;;;;;17.20;89.59;100722.16;10279814;28;20109;-63
2021/06/07 07:18:44;;;;;;;16.50;14.90;;;;;;;17.21;89.01;100723.84;10286601;28;20054;-63
2021/06/07 07:23:45;;;;;;;16.92;14.75;;;;;;;17.29;88.57;100726.63;10279623;28;20066;-62
2021/06/07 07:28:46;;;;;;;15.50;13.50;;;;;;;17.43;88.47;100732.41;10282173;28;20176;-63
2021/06/07 07:33:49;;;;;;;16.85;14.10;;;;;;;17.56;86.74;100726.63;10281896;23;20151;-61
2021/06/07 07:38:51;;;;;;;15.38;13.73;;;;;;;17.66;87.32;100736.28;10273997;28;20958;-60
2021/06/07 07:43:52;;;;;;;16.55;14.80;;;;;;;17.63;87.35;100736.63;10262538;28;20156;-60
2021/06/07 07:49:14;;;;;;;17.02;15.20;;;;;;;17.62;87.79;100736.78;10258484;28;20148;-59
2021/06/07 07:54:15;;;;;;;15.13;13.52;;;;;;;17.65;87.45;100740.00;10254939;28;20472;-61
2021/06/07 07:59:17;;;;;;;15.18;13.70;;;;;;;17.60;87.51;100746.88;10256900;28;20137;-58
2021/06/07 08:04:18;;;;;;;17.05;15.18;;;;;;;17.68;87.57;100741.53;10255463;28;20158;-61
2021/06/07 08:09:19;;;;;;;15.75;14.20;;;;;;;17.74;86.69;100748.13;10258317;28;20047;-61
2021/06/07 08:14:21;;;;;;;17.65;15.85;;;;;;;17.64;87.46;100746.38;10258696;28;20136;-61
2021/06/07 08:19:24;;;;;;;18.23;16.27;;;;;;;17.74;87.98;100750.81;10257397;28;20045;-61
2021/06/07 08:24:25;;;;;;;16.35;14.75;;;;;;;17.78;87.38;100754.91;10252578;28;20133;-61
2021/06/07 08:29:27;;;;;;;16.02;14.32;;;;;;;17.85;86.66;100753.25;10254989;28;20082;-60
2021/06/07 08:34:28;;;;;;;16.05;14.35;;;;;;;17.77;86.92;100755.88;10270665;28;20133;-60
2021/06/07 08:39:30;;;;;;;17.05;15.20;;;;;;;17.87;87.13;100763.88;10273756;28;20145;-61
2021/06/07 08:44:32;;;;;;;16.45;14.75;;;;;;;17.91;86.54;100762.56;10251325;28;20054;-60
2021/06/07 08:49:34;;;;;;;17.42;15.38;;;;;;;17.99;86.51;100758.06;10260623;28;20046;-61
2021/06/07 08:54:36;;;;;;;16.20;13.95;;;;;;;17.95;86.21;100755.84;10273116;28;20132;-61
2021/06/07 08:59:38;;;;;;;17.55;15.57;;;;;;;17.85;86.59;100758.66;10270571;28;20133;-61
2021/06/07 09:04:48;;;;;;;15.85;13.93;;;;;;;18.01;85.88;100757.91;10273040;28;20120;-61
2021/06/07 09:10:11;;;;;;;19.17;15.52;;;;;;;18.12;85.74;100764.88;10257506;28;20745;-60
2021/06/07 09:15:31;;;;;;;15.95;14.32;;;;;;;18.18;84.28;100758.88;10267741;28;20047;-59
2021/06/07 09:20:35;;;;;;;16.23;14.43;;;;;;;18.02;84.10;100765.84;10271466;28;20161;-60
2021/06/07 09:25:39;;;;;;;14.68;13.18;;;;;;;17.99;84.50;100759.94;10261993;28;20176;-64
2021/06/07 09:30:42;;;;;;;;;;;;;;;18.15;84.12;100754.63;10268967;28;20133;-61
2021/06/07 09:35:46;;;;;;;16.33;14.63;;;;;;;18.15;84.86;100753.78;10255224;28;20021;-60
2021/06/07 09:40:59;;;;;;;15.52;14.02;;;;;;;18.55;84.13;100760.34;10252439;28;20504;-60
2021/06/07 09:46:09;;;;;;;16.65;15.00;;;;;;;18.43;82.51;100762.47;10249217;28;20111;-60
2021/06/07 09:51:19;;;;;;;16.23;14.63;;;;;;;18.49;84.44;100756.44;10242078;28;20067;-60
2021/06/07 09:56:22;;;;;;;17.23;15.52;;;;;;;18.71;81.93;100751.47;10240576;28;20055;-60
2021/06/07 10:01:31;;;;;;;15.30;13.80;;;;;;;19.01;80.73;100755.44;10251588;28;20915;-60
2021/06/07 10:06:35;;;;;;;16.42;14.65;;;;;;;19.16;80.07;100752.09;10252123;28;20100;-60
2021/06/07 10:11:40;;;;;;;14.75;13.27;;;;;;;19.37;79.38;100754.28;10253944;28;20078;-60
2021/06/07 10:16:57;;;;;;;16.90;15.18;;;;;;;19.40;79.46;100743.16;10240653;28;20050;-60
2021/06/07 10:22:00;;;;;;;17.17;13.73;;;;;;;19.92;77.23;100747.28;10251393;28;20142;-60
2021/06/07 10:27:02;;;;;;;15.43;13.32;;;;;;;20.21;75.86;100745.88;10255230;28;20181;-61
2021/06/07 10:32:13;;;;;;;14.00;12.60;;;;;;;20.67;74.20;100751.41;10244437;28;20132;-60
2021/06/07 10:37:15;;;;;;;14.98;13.45;;;;;;;20.87;72.25;100738.28;10242591;28;20779;-60
2021/06/07 10:42:19;;;;;;;17.00;14.25;;;;;;;21.06;72.96;100746.94;10248811;28;20074;-61
2021/06/07 10:47:26;;;;;;;14.90;13.32;;;;;;;21.38;70.02;100743.16;10262135;28;20046;-63
2021/06/07 10:52:39;;;;;;;13.75;12.45;;;;;;;21.54;69.43;100744.88;10259904;28;20125;-60
2021/06/07 10:57:47;;;;;;;13.23;12.00;;;;;;;21.70;69.76;100735.78;10256427;28;20482;-61
2021/06/07 11:02:51;;;;;;;13.18;11.95;;;;;;;21.22;70.22;100748.69;10253368;28;20051;-60
2021/06/07 11:08:15;;;;;;;12.70;11.50;;;;;;;21.13;70.48;100746.03;10243179;28;20042;-61
2021/06/07 11:13:19;;;;;;;13.93;12.40;;;;;;;21.17;69.21;100736.53;10260876;28;20061;-62
2021/06/07 11:18:30;;;;;;;14.63;12.88;;;;;;;21.06;70.05;100734.25;10263159;28;20061;-61
2021/06/07 11:23:34;;;;;;;13.15;12.02;;;;;;;21.01;70.42;100744.78;10246002;28;20055;-60
2021/06/07 11:28:49;;;;;;;13.00;11.75;;;;;;;21.12;70.01;100744.38;10253059;28;20071;-59
2021/06/07 11:33:56;;;;;;;14.05;12.35;;;;;;;20.90;70.93;100734.41;10262178;28;20162;-60
2021/06/07 11:39:20;;;;;;;12.95;11.65;;;;;;;20.99;71.27;100738.72;10254735;28;20504;-61
2021/06/07 11:44:46;;;;;;;13.20;11.80;;;;;;;20.97;70.23;100729.94;10251911;28;20057;-59
2021/06/07 11:49:59;;;;;;;14.15;12.65;;;;;;;21.03;70.15;100726.50;10255996;28;20133;-61
2021/06/07 11:55:01;;;;;;;;;;;;;;;21.03;70.04;100723.78;10260572;28;20483;-61
2021/06/07 12:00:03;;;;;;;11.93;10.82;;;;;;;21.00;70.83;100725.00;10250798;28;19971;-60
2021/06/07 12:05:05;;;;;;;12.65;11.55;;;;;;;20.90;70.31;100713.59;10240981;28;20500;-61
2021/06/07 12:10:10;;;;;;;13.40;11.87;;;;;;;21.11;70.36;100718.34;10257097;28;20058;-60
2021/06/07 12:15:15;;;;;;;12.02;10.82;;;;;;;21.44;68.86;100712.63;10255703;28;20078;-60
2021/06/07 12:20:18;;;;;;;12.73;11.13;;;;;;;21.96;66.50;100718.22;10258362;28;20093;-61
2021/06/07 12:30:25;;;;;;;11.43;10.32;;;;;;;22.65;63.57;100701.56;10255108;28;19922;-60
2021/06/07 12:35:31;;;;;;;10.85;9.75;;;;;;;22.63;63.04;100700.09;10265313;28;20138;-60
2021/06/07 12:40:41;;;;;;;11.07;10.07;;;;;;;22.97;62.69;100709.41;10253911;28;21210;-61
2021/06/07 12:45:47;;;;;;;9.95;9.15;;;;;;;23.55;61.47;100707.41;10267577;28;20054;-62
2021/06/07 12:50:52;;;;;;;9.98;9.10;;;;;;;23.60;60.98;100704.09;10264817;28;20151;-61
2021/06/07 12:55:57;;;;;;;8.85;8.15;;;;;;;23.89;59.38;100703.09;10273046;28;20059;-61
2021/06/07 13:01:02;;;;;;;10.88;9.98;;;;;;;24.11;58.33;100692.09;10266713;28;20540;-61
2021/06/07 13:06:16;;;;;;;10.00;8.82;;;;;;;24.03;59.47;100687.66;10269614;28;20512;-61
2021/06/07 13:11:20;;;;;;;10.90;9.85;;;;;;;23.55;59.23;100685.69;10264479;28;20062;-60
2021/06/07 13:16:26;;;;;;;8.77;7.95;;;;;;;22.93;62.65;100685.38;10272919;28;20042;-61
2021/06/07 13:21:37;;;;;;;13.63;11.52;;;;;;;23.24;61.94;100677.94;10269404;28;20152;-60
2021/06/07 13:26:45;;;;;;;9.15;8.25;;;;;;;23.40;61.44;100683.06;10242853;28;20487;-62
2021/06/07 13:31:53;;;;;;;8.73;8.02;;;;;;;23.44;61.67;100688.97;10263605;28;20070;-61
2021/06/07 13:37:03;;;;;;;9.40;7.85;;;;;;;23.30;61.04;100661.69;10221747;23;20213;-65
2021/06/07 13:42:05;;;;;;;8.38;7.72;;;;;;;23.26;61.00;100673.16;10250926;28;20117;-65
2021/06/07 13:47:07;;;;;;;8.73;7.87;;;;;;;23.34;61.88;100674.88;10238955;28;20667;-65
2021/06/07 13:52:13;;;;;;;8.68;7.78;;;;;;;23.55;60.46;100669.38;10247914;28;20125;-64
2021/06/07 13:57:15;;;;;;;7.80;7.10;;;;;;;23.54;59.80;100667.72;10247228;28;20137;-66
2021/06/07 14:02:16;;;;;;;8.20;7.50;;;;;;;23.77;60.32;100666.59;10249061;28;20422;-64
2021/06/07 14:07:18;;;;;;;7.45;6.85;;;;;;;24.02;58.64;100663.41;10257634;28;20418;-71
2021/06/07 14:12:19;;;;;;;7.85;7.15;;;;;;;24.43;58.04;100667.97;10258391;28;20042;-65
2021/06/07 14:17:21;;;;;;;9.73;7.95;;;;;;;24.80;55.88;100655.72;10254634;28;20081;-65
2021/06/07 14:27:25;;;;;;;8.25;7.45;;;;;;;24.03;57.74;100665.09;10256751;28;20161;-65
2021/06/07 14:32:26;;;;;;;7.43;6.72;;;;;;;23.95;57.82;100653.34;10254721;28;20163;-65
2021/06/07 14:37:28;;;;;;;7.82;7.10;;;;;;;24.03;57.54;100646.88;10258169;28;20054;-64
2021/06/07 14:42:29;;;;;;;8.23;7.53;;;;;;;23.86;57.88;100643.69;10255774;28;20280;-65
2021/06/07 14:47:31;;;;;;;7.80;7.10;;;;;;;23.43;59.82;100632.94;10254048;28;20113;-64
2021/06/07 14:52:32;;;;;;;8.10;7.30;;;;;;;23.61;59.58;100633.25;10255429;28;20074;-65
2021/06/07 14:57:34;;;;;;;8.70;7.95;;;;;;;23.61;60.19;100640.59;10254978;28;20808;-65
2021/06/07 15:02:36;;;;;;;8.35;7.55;;;;;;;23.55;60.24;100625.91;10258516;28;20150;-65
2021/06/07 15:07:38;;;;;;;8.48;7.78;;;;;;;23.40;59.76;100627.91;10255212;28;20459;-64
2021/06/07 15:12:39;;;;;;;7.25;6.65;;;;;;;23.32;59.85;100625.38;10262023;28;20125;-66
2021/06/07 15:17:40;;;;;;;7.90;7.25;;;;;;;23.28;60.46;100628.47;10256810;28;20157;-65
2021/06/07 15:22:43;;;;;;;8.07;7.38;;;;;;;23.44;60.07;100618.34;10256892;28;20054;-64
2021/06/07 15:27:45;;;;;;;8.38;7.60;;;;;;;23.55;59.77;100625.09;10251623;28;20058;-64
2021/06/07 15:32:47;;;;;;;8.75;7.93;;;;;;;23.49;59.83;100626.72;10259396;28;20104;-64
2021/06/07 15:37:49;;;;;;;8.40;7.60;;;;;;;23.42;60.37;100615.81;10257360;28;20499;-69
2021/06/07 15:42:50;;;;;;;8.52;7.68;;;;;;;23.23;60.25;100611.09;10257580;28;20193;-64
2021/06/07 15:47:52;;;;;;;10.32;7.68;;;;;;;23.16;59.87;100608.31;10238840;28;20054;-64
2021/06/07 15:52:54;;;;;;;7.45;6.85;;;;;;;22.97;61.24;100598.97;10240137;28;20193;-59
2021/06/07 15:57:55;;;;;;;8.20;7.40;;;;;;;22.93;61.91;100603.13;10256666;28;20748;-58
2021/06/07 16:02:57;;;;;;;14.43;9.25;;;;;;;22.80;60.75;100594.84;10245281;28;20047;-60
2021/06/07 16:07:59;;;;;;;9.73;8.70;;;;;;;22.77;61.10;100596.06;10252641;28;20049;-58
2021/06/07 16:13:00;;;;;;;8.77;7.93;;;;;;;22.68;60.30;100591.81;10244490;28;20133;-70
2021/06/07 16:18:16;;;;;;;8.55;7.78;;;;;;;22.73;61.18;100586.66;10254757;28;20179;-63
2021/06/07 16:23:22;;;;;;;8.80;8.10;;;;;;;22.72;61.25;100584.97;10251369;28;20047;-64
2021/06/07 16:28:24;;;;;;;7.53;6.93;;;;;;;22.73;61.36;100589.38;10246793;28;20756;-64
2021/06/07 16:33:25;;;;;;;8.27;7.47;;;;;;;22.56;61.57;100577.94;10242979;28;20204;-64
2021/06/07 16:38:27;;;;;;;9.07;7.45;;;;;;;22.47;62.21;100595.38;10245866;28;20945;-63
2021/06/07 16:43:28;;;;;;;7.78;7.10;;;;;;;22.44;62.53;100588.47;10250535;28;20050;-64
2021/06/07 16:48:30;;;;;;;8.38;7.53;;;;;;;22.41;62.18;100581.59;10247617;28;20177;-64
2021/06/07 16:53:31;;;;;;;7.93;7.18;;;;;;;22.32;62.62;100587.31;10241752;28;20089;-64
2021/06/07 16:58:33;;;;;;;7.95;7.25;;;;;;;22.40;63.24;100589.91;10250958;28;20208;-66
2021/06/07 17:03:34;;;;;;;7.85;7.18;;;;;;;22.25;62.50;100590.75;10254452;28;20100;-60
2021/06/07 17:08:36;;;;;;;8.43;7.63;;;;;;;22.34;62.28;100590.66;10247081;28;20053;-59
2021/06/07 17:13:38;;;;;;;8.02;6.80;;;;;;;22.04;63.09;100577.19;10248847;28;20130;-59
2021/06/07 17:18:40;;;;;;;8.00;7.27;;;;;;;21.93;63.06;100593.94;10247258;28;20054;-59
2021/06/07 17:23:41;;;;;;;7.38;6.68;;;;;;;21.82;63.97;100595.25;10232785;28;20634;-59
2021/06/07 17:28:43;;;;;;;8.27;7.57;;;;;;;21.84;64.27;100590.47;10244670;28;20133;-59
2021/06/07 17:33:44;;;;;;;7.43;6.75;;;;;;;21.96;64.09;100590.84;10248130;28;20124;-59
2021/06/07 17:38:46;;;;;;;7.45;6.57;;;;;;;21.98;64.00;100594.19;10264640;28;20051;-59
2021/06/07 17:43:47;;;;;;;7.65;6.95;;;;;;;21.85;64.31;100595.72;10261698;28;20125;-59
2021/06/07 17:48:55;;;;;;;6.93;6.43;;;;;;;21.86;64.42;100608.25;10244701;28;20555;-59
2021/06/07 17:53:57;;;;;;;7.63;6.90;;;;;;;21.91;64.27;100606.84;10248798;28;20531;-59
2021/06/07 17:58:58;;;;;;;7.75;7.05;;;;;;;21.84;64.70;100610.31;10271395;28;20051;-59
2021/06/07 18:04:02;;;;;;;7.20;6.60;;;;;;;21.82;64.73;100609.63;10269459;28;20117;-59
2021/06/07 18:09:05;;;;;;;7.50;6.80;;;;;;;21.69;65.69;100604.91;10266900;28;20184;-59
2021/06/07 18:14:06;;;;;;;7.73;7.00;;;;;;;21.67;65.67;100616.94;10273091;28;21011;-59
2021/06/07 18:19:08;;;;;;;7.57;6.97;;;;;;;21.66;65.86;100621.53;10271565;28;20077;-60
2021/06/07 18:24:09;;;;;;;8.35;7.35;;;;;;;21.56;66.19;100614.69;10265852;28;20042;-59
2021/06/07 18:29:11;;;;;;;13.52;8.05;;;;;;;21.41;66.44;100612.81;10271057;28;20141;-59
2021/06/07 18:34:12;;;;;;;9.13;7.18;;;;;;;21.33;66.91;100621.00;10264898;28;20155;-59
2021/06/07 18:39:13;;;;;;;8.30;7.50;;;;;;;21.28;67.68;100623.44;10251253;28;20058;-59
2021/06/07 18:44:16;;;;;;;8.20;7.60;;;;;;;21.25;67.52;100631.94;10258601;28;20140;-59
2021/06/07 18:49:17;;;;;;;7.97;6.85;;;;;;;21.23;67.99;100631.25;10251678;28;20062;-59
2021/06/07 18:54:20;;;;;;;8.65;7.85;;;;;;;21.17;68.20;100628.28;10253645;28;20657;-60
2021/06/07 18:59:22;;;;;;;8.13;7.43;;;;;;;20.98;69.04;100639.63;10254986;28;20053;-59
2021/06/07 19:04:24;;;;;;;7.15;6.60;;;;;;;20.85;69.02;100632.09;10245939;28;20054;-59
2021/06/07 19:09:26;;;;;;;7.68;6.90;;;;;;;20.79;69.64;100636.41;10249467;28;20050;-60
2021/06/07 19:14:27;;;;;;;7.60;6.90;;;;;;;20.73;69.20;100638.97;10253855;28;20050;-59
2021/06/07 19:19:29;;;;;;;7.65;6.93;;;;;;;20.61;69.99;100646.63;10251947;28;20065;-61
2021/06/07 19:24:30;;;;;;;7.40;6.70;;;;;;;20.49;70.37;100646.19;10251372;28;20182;-60
2021/06/07 19:29:32;;;;;;;7.70;6.97;;;;;;;20.44;70.96;100654.84;10255029;28;20097;-59
2021/06/07 19:34:33;;;;;;;8.15;7.35;;;;;;;20.39;70.03;100662.66;10248488;28;20190;-59
2021/06/07 19:39:35;;;;;;;7.20;6.60;;;;;;;20.31;70.16;100674.38;10249952;28;20062;-59
2021/06/07 19:44:36;;;;;;;7.30;6.70;;;;;;;20.29;70.34;100680.97;10251197;28;20645;-58
2021/06/07 19:49:40;;;;;;;8.63;6.70;;;;;;;20.20;70.19;100690.13;10251372;28;20643;-59
2021/06/07 19:54:52;;;;;;;7.57;6.93;;;;;;;19.99;71.56;100698.84;10247586;28;20449;-59
2021/06/07 19:59:56;;;;;;;8.50;6.95;;;;;;;20.04;70.89;100700.00;10241387;28;20129;-59
2021/06/07 20:04:57;;;;;;;7.82;7.13;;;;;;;20.04;70.83;100704.53;10243320;28;20155;-58
2021/06/07 20:09:59;;;;;;;8.13;7.38;;;;;;;20.04;70.50;100707.25;10249400;28;20129;-65
2021/06/07 20:15:01;;;;;;;8.32;7.53;;;;;;;20.07;71.03;100713.16;10244859;28;20120;-64
2021/06/07 20:20:03;;;;;;;8.68;7.90;;;;;;;20.02;71.08;100707.41;10242722;28;20129;-64
2021/06/07 20:25:05;;;;;;;9.35;8.55;;;;;;;19.86;70.93;100700.22;10246248;28;20062;-64
2021/06/07 20:30:11;;;;;;;9.77;8.82;;;;;;;19.77;71.24;100691.31;10237705;28;20070;-65
2021/06/07 20:35:15;;;;;;;9.80;8.63;;;;;;;19.57;71.55;100695.38;10246682;28;20043;-65
2021/06/07 20:40:19;;;;;;;8.85;8.05;;;;;;;19.41;72.41;100691.69;10249616;28;20062;-64
2021/06/07 20:45:24;;;;;;;9.35;8.43;;;;;;;19.49;73.48;100700.78;10252611;28;20129;-63
2021/06/07 20:50:26;;;;;;;10.23;9.32;;;;;;;19.48;71.85;100697.22;10244598;28;20046;-63
2021/06/07 20:55:29;;;;;;;11.40;9.73;;;;;;;19.41;72.61;100707.88;10247232;28;20204;-62
2021/06/07 21:00:31;;;;;;;10.85;9.85;;;;;;;19.47;72.24;100705.50;10236345;28;20138;-63
2021/06/07 21:05:32;;;;;;;9.95;9.15;;;;;;;19.48;72.01;100701.78;10231951;28;20063;-62
2021/06/07 21:10:34;;;;;;;10.07;9.10;;;;;;;19.21;72.47;100711.94;10240784;28;20050;-62
2021/06/07 21:15:35;;;;;;;10.95;10.10;;;;;;;19.17;74.15;100710.56;10237543;28;20245;-63
2021/06/07 21:20:37;;;;;;;11.27;10.30;;;;;;;19.16;73.93;100703.50;10245284;28;20137;-62
2021/06/07 21:25:38;;;;;;;11.40;10.30;;;;;;;19.14;72.75;100710.91;10233917;28;20503;-63
2021/06/07 21:30:40;;;;;;;11.25;10.30;;;;;;;19.21;72.77;100706.53;10234533;28;20164;-63
2021/06/07 21:35:42;;;;;;;10.48;9.45;;;;;;;19.29;72.46;100706.56;10247100;28;20551;-62
2021/06/07 21:40:43;;;;;;;11.93;10.73;;;;;;;19.20;71.76;100704.84;10242513;28;20097;-63
2021/06/07 21:45:45;;;;;;;10.52;9.52;;;;;;;19.01;74.44;100706.88;10246088;28;20463;-63
2021/06/07 21:50:46;;;;;;;12.02;10.93;;;;;;;19.00;72.50;100713.28;10244180;28;20132;-63
2021/06/07 21:55:48;;;;;;;11.63;10.70;;;;;;;18.92;72.79;100712.44;10242445;28;20094;-64
2021/06/07 22:00:49;;;;;;;12.82;10.95;;;;;;;18.93;73.18;100717.66;10239483;28;20110;-63
2021/06/07 22:05:51;;;;;;;11.68;10.68;;;;;;;18.83;72.77;100714.25;10232374;28;20055;-64
2021/06/07 22:10:53;;;;;;;12.02;11.02;;;;;;;18.76;73.30;100715.91;10240373;28;20130;-63
2021/06/07 22:15:55;;;;;;;11.88;10.82;;;;;;;18.77;73.65;100717.63;10236634;28;20066;-64
2021/06/07 22:20:57;;;;;;;12.43;11.23;;;;;;;18.95;72.89;100709.41;10241119;28;20063;-63
2021/06/07 22:25:59;;;;;;;12.80;11.45;;;;;;;18.73;73.25;100706.28;10239241;28;20050;-63
2021/06/07 22:31:00;;;;;;;11.45;10.38;;;;;;;18.77;73.26;100704.97;10241185;28;20078;-63
2021/06/07 22:36:02;;;;;;;12.57;11.57;;;;;;;18.54;74.16;100691.28;10251488;28;20744;-63
2021/06/07 22:41:06;;;;;;;13.20;11.93;;;;;;;18.64;73.53;100699.22;10250845;28;20693;-63
2021/06/07 22:46:08;;;;;;;12.55;11.52;;;;;;;18.54;74.17;100699.38;10259480;28;20731;-63
2021/06/07 22:51:10;;;;;;;13.13;11.90;;;;;;;18.37;73.98;100701.16;10244321;28;20069;-63
2021/06/07 22:56:12;;;;;;;13.38;12.18;;;;;;;18.37;75.69;100704.72;10248697;28;20400;-64
2021/06/07 23:01:13;;;;;;;13.07;11.80;;;;;;;18.51;73.77;100710.44;10248998;28;20113;-63
2021/06/07 23:06:15;;;;;;;12.30;11.25;;;;;;;18.50;73.52;100698.84;10250125;28;20497;-62